sensor_id;sensor_type;location;lat;lon;timestamp;P1;durP1;ratioP1;P2;durP2;ratioP2
53207;SDS011;39093;52.788;6.940;2023-09-18T00:00:35;27.20;;;24.50;;
53207;SDS011;39093;52.788;6.940;2023-09-18T00:03:02;25.90;;;22.27;;
53207;SDS011;39093;52.788;6.940;2023-09-18T00:05:30;25.55;;;23.05;;
53207;SDS011;39093;52.788;6.940;2023-09-18T00:07:57;30.70;;;26.75;;
53207;SDS011;39093;52.788;6.940;2023-09-18T00:10:25;28.75;;;25.65;;
53207;SDS011;39093;52.788;6.940;2023-09-18T00:12:52;30.58;;;27.13;;
53207;SDS011;39093;52.788;6.940;2023-09-18T00:15:19;29.15;;;24.65;;
53207;SDS011;39093;52.788;6.940;2023-09-18T00:17:47;29.88;;;26.95;;
53207;SDS011;39093;52.788;6.940;2023-09-18T00:20:14;30.08;;;27.23;;
53207;SDS011;39093;52.788;6.940;2023-09-18T00:22:44;33.35;;;28.02;;
53207;SDS011;39093;52.788;6.940;2023-09-18T00:25:11;29.90;;;26.70;;
53207;SDS011;39093;52.788;6.940;2023-09-18T00:27:38;28.48;;;21.50;;
53207;SDS011;39093;52.788;6.940;2023-09-18T00:30:05;26.33;;;23.83;;
53207;SDS011;39093;52.788;6.940;2023-09-18T00:32:33;26.63;;;23.92;;
53207;SDS011;39093;52.788;6.940;2023-09-18T00:35:00;26.30;;;23.60;;
53207;SDS011;39093;52.788;6.940;2023-09-18T00:37:28;28.05;;;24.65;;
53207;SDS011;39093;52.788;6.940;2023-09-18T00:39:55;27.63;;;24.65;;
53207;SDS011;39093;52.788;6.940;2023-09-18T00:42:22;27.23;;;24.45;;
53207;SDS011;39093;52.788;6.940;2023-09-18T00:44:50;30.20;;;26.98;;
53207;SDS011;39093;52.788;6.940;2023-09-18T00:47:17;31.08;;;25.23;;
53207;SDS011;39093;52.788;6.940;2023-09-18T00:49:45;28.27;;;25.27;;
53207;SDS011;39093;52.788;6.940;2023-09-18T00:52:15;29.77;;;26.58;;
53207;SDS011;39093;52.788;6.940;2023-09-18T00:54:43;26.65;;;23.98;;
53207;SDS011;39093;52.788;6.940;2023-09-18T00:57:12;27.58;;;24.55;;
53207;SDS011;39093;52.788;6.940;2023-09-18T00:59:42;27.58;;;24.73;;
53207;SDS011;39093;52.788;6.940;2023-09-18T01:02:09;25.40;;;22.88;;
53207;SDS011;39093;52.788;6.940;2023-09-18T01:04:36;30.83;;;27.83;;
53207;SDS011;39093;52.788;6.940;2023-09-18T01:07:04;29.10;;;26.33;;
53207;SDS011;39093;52.788;6.940;2023-09-18T01:09:31;29.90;;;26.40;;
53207;SDS011;39093;52.788;6.940;2023-09-18T01:14:37;27.65;;;24.08;;
53207;SDS011;39093;52.788;6.940;2023-09-18T01:17:24;27.88;;;24.67;;
53207;SDS011;39093;52.788;6.940;2023-09-18T01:19:52;26.50;;;24.02;;
53207;SDS011;39093;52.788;6.940;2023-09-18T01:22:19;30.23;;;24.10;;
53207;SDS011;39093;52.788;6.940;2023-09-18T01:24:48;29.98;;;23.42;;
53207;SDS011;39093;52.788;6.940;2023-09-18T01:27:18;25.65;;;23.15;;
53207;SDS011;39093;52.788;6.940;2023-09-18T01:29:45;28.33;;;24.08;;
53207;SDS011;39093;52.788;6.940;2023-09-18T01:32:13;24.75;;;22.10;;
53207;SDS011;39093;52.788;6.940;2023-09-18T01:34:42;22.98;;;20.77;;
53207;SDS011;39093;52.788;6.940;2023-09-18T01:37:16;25.33;;;22.65;;
53207;SDS011;39093;52.788;6.940;2023-09-18T01:39:47;21.17;;;19.20;;
53207;SDS011;39093;52.788;6.940;2023-09-18T01:42:16;25.08;;;22.38;;
53207;SDS011;39093;52.788;6.940;2023-09-18T01:44:44;24.15;;;21.65;;
53207;SDS011;39093;52.788;6.940;2023-09-18T01:47:14;26.13;;;23.33;;
53207;SDS011;39093;52.788;6.940;2023-09-18T01:49:44;25.70;;;22.13;;
53207;SDS011;39093;52.788;6.940;2023-09-18T01:52:12;24.20;;;21.80;;
53207;SDS011;39093;52.788;6.940;2023-09-18T01:54:39;26.23;;;23.42;;
53207;SDS011;39093;52.788;6.940;2023-09-18T01:57:07;25.20;;;22.50;;
53207;SDS011;39093;52.788;6.940;2023-09-18T01:59:34;24.08;;;21.35;;
53207;SDS011;39093;52.788;6.940;2023-09-18T02:02:05;26.88;;;22.52;;
53207;SDS011;39093;52.788;6.940;2023-09-18T02:04:44;23.88;;;21.45;;
53207;SDS011;39093;52.788;6.940;2023-09-18T02:07:31;24.00;;;21.42;;
53207;SDS011;39093;52.788;6.940;2023-09-18T02:09:58;22.65;;;20.45;;
53207;SDS011;39093;52.788;6.940;2023-09-18T02:12:25;25.25;;;21.02;;
53207;SDS011;39093;52.788;6.940;2023-09-18T02:14:52;22.23;;;20.08;;
53207;SDS011;39093;52.788;6.940;2023-09-18T02:17:19;28.40;;;22.17;;
53207;SDS011;39093;52.788;6.940;2023-09-18T02:19:47;23.98;;;21.10;;
53207;SDS011;39093;52.788;6.940;2023-09-18T02:22:14;25.00;;;20.95;;
53207;SDS011;39093;52.788;6.940;2023-09-18T02:24:41;20.38;;;18.48;;
53207;SDS011;39093;52.788;6.940;2023-09-18T02:27:07;20.45;;;18.40;;
53207;SDS011;39093;52.788;6.940;2023-09-18T02:29:34;23.35;;;20.88;;
53207;SDS011;39093;52.788;6.940;2023-09-18T02:32:01;24.45;;;21.02;;
53207;SDS011;39093;52.788;6.940;2023-09-18T02:34:29;20.02;;;17.92;;
53207;SDS011;39093;52.788;6.940;2023-09-18T02:36:56;25.25;;;20.88;;
53207;SDS011;39093;52.788;6.940;2023-09-18T02:39:23;21.27;;;19.05;;
53207;SDS011;39093;52.788;6.940;2023-09-18T02:41:50;21.58;;;19.40;;
53207;SDS011;39093;52.788;6.940;2023-09-18T02:44:17;21.38;;;19.08;;
53207;SDS011;39093;52.788;6.940;2023-09-18T02:46:44;22.23;;;18.55;;
53207;SDS011;39093;52.788;6.940;2023-09-18T02:49:11;19.98;;;17.52;;
53207;SDS011;39093;52.788;6.940;2023-09-18T02:51:38;23.33;;;18.55;;
53207;SDS011;39093;52.788;6.940;2023-09-18T02:54:05;19.67;;;17.75;;
53207;SDS011;39093;52.788;6.940;2023-09-18T02:56:32;20.52;;;18.33;;
53207;SDS011;39093;52.788;6.940;2023-09-18T02:58:59;19.83;;;17.50;;
53207;SDS011;39093;52.788;6.940;2023-09-18T03:01:26;19.33;;;17.45;;
53207;SDS011;39093;52.788;6.940;2023-09-18T03:03:53;19.60;;;17.25;;
53207;SDS011;39093;52.788;6.940;2023-09-18T03:06:20;18.08;;;16.23;;
53207;SDS011;39093;52.788;6.940;2023-09-18T03:08:46;19.52;;;16.75;;
53207;SDS011;39093;52.788;6.940;2023-09-18T03:11:14;19.30;;;17.25;;
53207;SDS011;39093;52.788;6.940;2023-09-18T03:13:44;17.73;;;15.93;;
53207;SDS011;39093;52.788;6.940;2023-09-18T03:16:15;19.10;;;17.20;;
53207;SDS011;39093;52.788;6.940;2023-09-18T03:18:42;19.42;;;15.98;;
53207;SDS011;39093;52.788;6.940;2023-09-18T03:21:09;17.58;;;15.82;;
53207;SDS011;39093;52.788;6.940;2023-09-18T03:23:36;17.33;;;15.52;;
53207;SDS011;39093;52.788;6.940;2023-09-18T03:26:03;18.10;;;15.43;;
53207;SDS011;39093;52.788;6.940;2023-09-18T03:28:30;19.15;;;15.23;;
53207;SDS011;39093;52.788;6.940;2023-09-18T03:30:58;16.42;;;14.65;;
53207;SDS011;39093;52.788;6.940;2023-09-18T03:33:25;19.95;;;15.90;;
53207;SDS011;39093;52.788;6.940;2023-09-18T03:35:52;19.63;;;14.70;;
53207;SDS011;39093;52.788;6.940;2023-09-18T03:38:21;18.13;;;14.75;;
53207;SDS011;39093;52.788;6.940;2023-09-18T03:40:50;17.80;;;14.82;;
53207;SDS011;39093;52.788;6.940;2023-09-18T03:43:17;15.57;;;13.60;;
53207;SDS011;39093;52.788;6.940;2023-09-18T03:45:44;16.73;;;13.80;;
53207;SDS011;39093;52.788;6.940;2023-09-18T03:48:11;16.73;;;13.73;;
53207;SDS011;39093;52.788;6.940;2023-09-18T03:50:38;14.65;;;13.15;;
53207;SDS011;39093;52.788;6.940;2023-09-18T03:53:07;13.10;;;11.75;;
53207;SDS011;39093;52.788;6.940;2023-09-18T03:55:34;17.95;;;13.45;;
53207;SDS011;39093;52.788;6.940;2023-09-18T03:58:01;16.08;;;12.38;;
53207;SDS011;39093;52.788;6.940;2023-09-18T04:00:30;16.73;;;13.05;;
53207;SDS011;39093;52.788;6.940;2023-09-18T04:02:57;15.93;;;13.82;;
53207;SDS011;39093;52.788;6.940;2023-09-18T04:05:24;19.85;;;13.40;;
53207;SDS011;39093;52.788;6.940;2023-09-18T04:07:51;18.15;;;13.23;;
53207;SDS011;39093;52.788;6.940;2023-09-18T04:10:19;15.57;;;12.27;;
53207;SDS011;39093;52.788;6.940;2023-09-18T04:12:49;16.88;;;14.23;;
53207;SDS011;39093;52.788;6.940;2023-09-18T04:15:17;15.98;;;11.55;;
53207;SDS011;39093;52.788;6.940;2023-09-18T04:17:45;13.90;;;11.18;;
53207;SDS011;39093;52.788;6.940;2023-09-18T04:20:13;15.30;;;11.68;;
53207;SDS011;39093;52.788;6.940;2023-09-18T04:22:45;14.48;;;11.35;;
53207;SDS011;39093;52.788;6.940;2023-09-18T04:25:16;20.15;;;12.13;;
53207;SDS011;39093;52.788;6.940;2023-09-18T04:27:46;12.98;;;11.00;;
53207;SDS011;39093;52.788;6.940;2023-09-18T04:30:13;12.98;;;11.65;;
53207;SDS011;39093;52.788;6.940;2023-09-18T04:32:41;12.10;;;10.70;;
53207;SDS011;39093;52.788;6.940;2023-09-18T04:35:08;15.27;;;10.23;;
53207;SDS011;39093;52.788;6.940;2023-09-18T04:37:37;11.98;;;10.68;;
53207;SDS011;39093;52.788;6.940;2023-09-18T04:40:05;15.82;;;11.88;;
53207;SDS011;39093;52.788;6.940;2023-09-18T04:42:37;12.85;;;11.40;;
53207;SDS011;39093;52.788;6.940;2023-09-18T04:45:06;16.23;;;10.90;;
53207;SDS011;39093;52.788;6.940;2023-09-18T04:47:33;12.32;;;9.98;;
53207;SDS011;39093;52.788;6.940;2023-09-18T04:50:00;14.77;;;10.55;;
53207;SDS011;39093;52.788;6.940;2023-09-18T04:52:35;12.98;;;9.93;;
53207;SDS011;39093;52.788;6.940;2023-09-18T04:55:02;15.88;;;10.52;;
53207;SDS011;39093;52.788;6.940;2023-09-18T04:57:32;15.68;;;10.57;;
53207;SDS011;39093;52.788;6.940;2023-09-18T05:00:00;13.43;;;10.05;;
53207;SDS011;39093;52.788;6.940;2023-09-18T05:02:42;14.63;;;10.60;;
53207;SDS011;39093;52.788;6.940;2023-09-18T05:05:10;14.77;;;9.55;;
53207;SDS011;39093;52.788;6.940;2023-09-18T05:07:37;13.18;;;10.27;;
53207;SDS011;39093;52.788;6.940;2023-09-18T05:10:04;12.48;;;10.18;;
53207;SDS011;39093;52.788;6.940;2023-09-18T05:12:31;14.45;;;10.15;;
53207;SDS011;39093;52.788;6.940;2023-09-18T05:14:58;17.60;;;10.55;;
53207;SDS011;39093;52.788;6.940;2023-09-18T05:17:45;12.13;;;9.57;;
53207;SDS011;39093;52.788;6.940;2023-09-18T05:20:15;14.15;;;9.75;;
53207;SDS011;39093;52.788;6.940;2023-09-18T05:22:44;12.98;;;9.43;;
53207;SDS011;39093;52.788;6.940;2023-09-18T05:25:12;11.55;;;9.82;;
53207;SDS011;39093;52.788;6.940;2023-09-18T05:27:41;12.05;;;9.68;;
53207;SDS011;39093;52.788;6.940;2023-09-18T05:30:12;12.18;;;9.55;;
53207;SDS011;39093;52.788;6.940;2023-09-18T05:32:47;13.52;;;9.43;;
53207;SDS011;39093;52.788;6.940;2023-09-18T05:35:14;15.50;;;9.63;;
53207;SDS011;39093;52.788;6.940;2023-09-18T05:37:43;16.38;;;9.60;;
53207;SDS011;39093;52.788;6.940;2023-09-18T05:40:11;13.43;;;9.00;;
53207;SDS011;39093;52.788;6.940;2023-09-18T05:42:40;14.70;;;9.25;;
53207;SDS011;39093;52.788;6.940;2023-09-18T05:45:12;13.93;;;9.50;;
53207;SDS011;39093;52.788;6.940;2023-09-18T05:47:40;17.85;;;10.18;;
53207;SDS011;39093;52.788;6.940;2023-09-18T05:50:10;15.60;;;9.38;;
53207;SDS011;39093;52.788;6.940;2023-09-18T05:52:47;13.23;;;9.52;;
53207;SDS011;39093;52.788;6.940;2023-09-18T05:55:15;15.50;;;8.40;;
53207;SDS011;39093;52.788;6.940;2023-09-18T05:57:45;11.77;;;9.65;;
53207;SDS011;39093;52.788;6.940;2023-09-18T06:00:12;14.65;;;9.05;;
53207;SDS011;39093;52.788;6.940;2023-09-18T06:02:40;12.10;;;8.35;;
53207;SDS011;39093;52.788;6.940;2023-09-18T06:05:08;15.23;;;8.82;;
53207;SDS011;39093;52.788;6.940;2023-09-18T06:07:38;13.32;;;7.85;;
53207;SDS011;39093;52.788;6.940;2023-09-18T06:10:05;13.30;;;8.05;;
53207;SDS011;39093;52.788;6.940;2023-09-18T06:12:32;13.27;;;8.20;;
53207;SDS011;39093;52.788;6.940;2023-09-18T06:15:00;9.93;;;7.97;;
53207;SDS011;39093;52.788;6.940;2023-09-18T06:17:27;12.73;;;7.78;;
53207;SDS011;39093;52.788;6.940;2023-09-18T06:19:54;18.30;;;8.20;;
53207;SDS011;39093;52.788;6.940;2023-09-18T06:22:21;18.50;;;9.02;;
53207;SDS011;39093;52.788;6.940;2023-09-18T06:24:48;13.40;;;9.20;;
53207;SDS011;39093;52.788;6.940;2023-09-18T06:27:15;15.93;;;8.77;;
53207;SDS011;39093;52.788;6.940;2023-09-18T06:29:42;12.82;;;8.43;;
53207;SDS011;39093;52.788;6.940;2023-09-18T06:32:09;15.43;;;9.02;;
53207;SDS011;39093;52.788;6.940;2023-09-18T06:34:37;16.40;;;9.45;;
53207;SDS011;39093;52.788;6.940;2023-09-18T06:37:04;17.85;;;9.82;;
53207;SDS011;39093;52.788;6.940;2023-09-18T06:39:34;16.13;;;9.18;;
53207;SDS011;39093;52.788;6.940;2023-09-18T06:42:04;15.15;;;10.57;;
53207;SDS011;39093;52.788;6.940;2023-09-18T06:44:31;19.92;;;10.13;;
53207;SDS011;39093;52.788;6.940;2023-09-18T06:46:58;19.00;;;10.23;;
53207;SDS011;39093;52.788;6.940;2023-09-18T06:49:25;16.10;;;10.60;;
53207;SDS011;39093;52.788;6.940;2023-09-18T06:51:53;19.45;;;10.88;;
53207;SDS011;39093;52.788;6.940;2023-09-18T06:54:19;19.83;;;10.82;;
53207;SDS011;39093;52.788;6.940;2023-09-18T06:56:46;17.48;;;9.93;;
53207;SDS011;39093;52.788;6.940;2023-09-18T06:59:14;12.77;;;9.80;;
53207;SDS011;39093;52.788;6.940;2023-09-18T07:01:41;15.48;;;9.88;;
53207;SDS011;39093;52.788;6.940;2023-09-18T07:04:09;15.88;;;10.70;;
53207;SDS011;39093;52.788;6.940;2023-09-18T07:06:36;29.38;;;10.68;;
53207;SDS011;39093;52.788;6.940;2023-09-18T07:09:04;19.02;;;10.75;;
53207;SDS011;39093;52.788;6.940;2023-09-18T07:11:33;22.05;;;11.63;;
53207;SDS011;39093;52.788;6.940;2023-09-18T07:14:00;19.05;;;11.70;;
53207;SDS011;39093;52.788;6.940;2023-09-18T07:16:28;17.92;;;13.13;;
53207;SDS011;39093;52.788;6.940;2023-09-18T07:18:56;23.67;;;13.88;;
53207;SDS011;39093;52.788;6.940;2023-09-18T07:21:22;22.10;;;14.45;;
53207;SDS011;39093;52.788;6.940;2023-09-18T07:23:49;25.90;;;15.73;;
53207;SDS011;39093;52.788;6.940;2023-09-18T07:26:17;19.13;;;13.15;;
53207;SDS011;39093;52.788;6.940;2023-09-18T07:28:44;24.17;;;14.95;;
53207;SDS011;39093;52.788;6.940;2023-09-18T07:31:11;21.17;;;14.60;;
53207;SDS011;39093;52.788;6.940;2023-09-18T07:33:40;22.20;;;14.40;;
53207;SDS011;39093;52.788;6.940;2023-09-18T07:36:08;23.75;;;17.02;;
53207;SDS011;39093;52.788;6.940;2023-09-18T07:38:36;20.48;;;16.85;;
53207;SDS011;39093;52.788;6.940;2023-09-18T07:41:09;24.65;;;17.38;;
53207;SDS011;39093;52.788;6.940;2023-09-18T07:43:36;20.95;;;16.63;;
53207;SDS011;39093;52.788;6.940;2023-09-18T07:46:05;24.98;;;17.40;;
53207;SDS011;39093;52.788;6.940;2023-09-18T07:48:32;23.80;;;15.93;;
53207;SDS011;39093;52.788;6.940;2023-09-18T07:51:00;17.30;;;13.82;;
53207;SDS011;39093;52.788;6.940;2023-09-18T07:53:27;20.00;;;14.93;;
53207;SDS011;39093;52.788;6.940;2023-09-18T07:55:57;25.77;;;15.65;;
53207;SDS011;39093;52.788;6.940;2023-09-18T07:58:26;22.63;;;15.43;;
53207;SDS011;39093;52.788;6.940;2023-09-18T08:00:55;20.30;;;14.32;;
53207;SDS011;39093;52.788;6.940;2023-09-18T08:03:24;20.73;;;14.32;;
53207;SDS011;39093;52.788;6.940;2023-09-18T08:05:52;27.65;;;15.15;;
53207;SDS011;39093;52.788;6.940;2023-09-18T08:08:20;19.42;;;14.25;;
53207;SDS011;39093;52.788;6.940;2023-09-18T08:10:48;21.02;;;14.32;;
53207;SDS011;39093;52.788;6.940;2023-09-18T08:13:16;17.73;;;13.88;;
53207;SDS011;39093;52.788;6.940;2023-09-18T08:15:43;19.58;;;13.35;;
53207;SDS011;39093;52.788;6.940;2023-09-18T08:18:10;18.35;;;13.75;;
53207;SDS011;39093;52.788;6.940;2023-09-18T08:20:40;22.30;;;12.90;;
53207;SDS011;39093;52.788;6.940;2023-09-18T08:23:10;24.67;;;13.07;;
53207;SDS011;39093;52.788;6.940;2023-09-18T08:25:37;20.30;;;12.20;;
53207;SDS011;39093;52.788;6.940;2023-09-18T08:28:06;19.95;;;14.25;;
53207;SDS011;39093;52.788;6.940;2023-09-18T08:30:35;28.73;;;21.20;;
53207;SDS011;39093;52.788;6.940;2023-09-18T08:33:04;18.60;;;13.35;;
53207;SDS011;39093;52.788;6.940;2023-09-18T08:35:31;21.13;;;14.00;;
53207;SDS011;39093;52.788;6.940;2023-09-18T08:37:59;22.83;;;13.63;;
53207;SDS011;39093;52.788;6.940;2023-09-18T08:40:26;21.48;;;14.27;;
53207;SDS011;39093;52.788;6.940;2023-09-18T08:42:54;18.50;;;13.48;;
53207;SDS011;39093;52.788;6.940;2023-09-18T08:45:42;22.83;;;14.15;;
53207;SDS011;39093;52.788;6.940;2023-09-18T08:48:16;24.70;;;15.43;;
53207;SDS011;39093;52.788;6.940;2023-09-18T08:50:44;20.33;;;13.55;;
53207;SDS011;39093;52.788;6.940;2023-09-18T08:53:12;22.60;;;13.85;;
53207;SDS011;39093;52.788;6.940;2023-09-18T08:55:39;22.52;;;14.85;;
53207;SDS011;39093;52.788;6.940;2023-09-18T08:58:07;22.77;;;14.73;;
53207;SDS011;39093;52.788;6.940;2023-09-18T09:00:36;24.58;;;15.45;;
53207;SDS011;39093;52.788;6.940;2023-09-18T09:03:04;18.80;;;13.32;;
53207;SDS011;39093;52.788;6.940;2023-09-18T09:05:31;15.90;;;13.82;;
53207;SDS011;39093;52.788;6.940;2023-09-18T09:07:59;16.77;;;12.63;;
53207;SDS011;39093;52.788;6.940;2023-09-18T09:10:27;22.20;;;13.50;;
53207;SDS011;39093;52.788;6.940;2023-09-18T09:12:55;17.80;;;11.77;;
53207;SDS011;39093;52.788;6.940;2023-09-18T09:15:25;13.45;;;11.25;;
53207;SDS011;39093;52.788;6.940;2023-09-18T09:18:01;22.50;;;11.45;;
53207;SDS011;39093;52.788;6.940;2023-09-18T09:20:30;13.27;;;10.52;;
53207;SDS011;39093;52.788;6.940;2023-09-18T09:23:02;12.65;;;9.30;;
53207;SDS011;39093;52.788;6.940;2023-09-18T09:25:31;11.80;;;9.57;;
53207;SDS011;39093;52.788;6.940;2023-09-18T09:28:00;13.93;;;9.13;;
53207;SDS011;39093;52.788;6.940;2023-09-18T09:30:30;14.10;;;8.82;;
53207;SDS011;39093;52.788;6.940;2023-09-18T09:32:59;12.30;;;7.70;;
53207;SDS011;39093;52.788;6.940;2023-09-18T09:35:29;14.82;;;8.38;;
53207;SDS011;39093;52.788;6.940;2023-09-18T09:37:58;16.63;;;7.82;;
53207;SDS011;39093;52.788;6.940;2023-09-18T09:40:38;10.05;;;6.63;;
53207;SDS011;39093;52.788;6.940;2023-09-18T09:43:10;14.48;;;7.03;;
53207;SDS011;39093;52.788;6.940;2023-09-18T09:45:40;17.00;;;8.13;;
53207;SDS011;39093;52.788;6.940;2023-09-18T09:48:08;10.25;;;6.55;;
53207;SDS011;39093;52.788;6.940;2023-09-18T09:50:45;13.95;;;7.60;;
53207;SDS011;39093;52.788;6.940;2023-09-18T09:53:15;11.27;;;6.00;;
53207;SDS011;39093;52.788;6.940;2023-09-18T09:55:44;8.98;;;5.20;;
53207;SDS011;39093;52.788;6.940;2023-09-18T09:58:11;9.70;;;5.18;;
53207;SDS011;39093;52.788;6.940;2023-09-18T10:00:46;6.53;;;5.13;;
53207;SDS011;39093;52.788;6.940;2023-09-18T10:03:19;8.93;;;5.50;;
53207;SDS011;39093;52.788;6.940;2023-09-18T10:05:48;10.02;;;4.68;;
53207;SDS011;39093;52.788;6.940;2023-09-18T10:08:22;8.85;;;4.53;;
53207;SDS011;39093;52.788;6.940;2023-09-18T10:10:53;4.70;;;4.20;;
53207;SDS011;39093;52.788;6.940;2023-09-18T10:13:27;9.27;;;4.70;;
53207;SDS011;39093;52.788;6.940;2023-09-18T10:15:59;7.28;;;4.13;;
53207;SDS011;39093;52.788;6.940;2023-09-18T10:26:59;6.40;;;3.72;;
53207;SDS011;39093;52.788;6.940;2023-09-18T10:29:32;8.00;;;3.47;;
53207;SDS011;39093;52.788;6.940;2023-09-18T10:32:02;8.35;;;3.80;;
53207;SDS011;39093;52.788;6.940;2023-09-18T10:34:39;6.82;;;2.92;;
53207;SDS011;39093;52.788;6.940;2023-09-18T10:37:07;8.63;;;3.85;;
53207;SDS011;39093;52.788;6.940;2023-09-18T10:39:37;7.60;;;3.70;;
53207;SDS011;39093;52.788;6.940;2023-09-18T10:42:08;7.22;;;3.10;;
53207;SDS011;39093;52.788;6.940;2023-09-18T10:44:36;5.22;;;3.20;;
53207;SDS011;39093;52.788;6.940;2023-09-18T10:47:07;5.10;;;3.10;;
53207;SDS011;39093;52.788;6.940;2023-09-18T10:49:36;5.38;;;3.25;;
53207;SDS011;39093;52.788;6.940;2023-09-18T10:52:03;6.82;;;3.40;;
53207;SDS011;39093;52.788;6.940;2023-09-18T10:54:31;4.53;;;3.80;;
53207;SDS011;39093;52.788;6.940;2023-09-18T10:56:59;3.88;;;2.85;;
53207;SDS011;39093;52.788;6.940;2023-09-18T10:59:28;5.25;;;2.58;;
53207;SDS011;39093;52.788;6.940;2023-09-18T11:02:02;10.55;;;3.33;;
53207;SDS011;39093;52.788;6.940;2023-09-18T11:04:31;7.95;;;3.10;;
53207;SDS011;39093;52.788;6.940;2023-09-18T11:09:26;8.73;;;2.55;;
53207;SDS011;39093;52.788;6.940;2023-09-18T11:14:42;5.00;;;2.40;;
53207;SDS011;39093;52.788;6.940;2023-09-18T11:17:28;5.03;;;2.35;;
53207;SDS011;39093;52.788;6.940;2023-09-18T11:22:49;5.43;;;2.28;;
53207;SDS011;39093;52.788;6.940;2023-09-18T11:25:35;4.97;;;2.40;;
53207;SDS011;39093;52.788;6.940;2023-09-18T11:28:07;6.60;;;2.47;;
53207;SDS011;39093;52.788;6.940;2023-09-18T11:30:59;4.30;;;1.90;;
53207;SDS011;39093;52.788;6.940;2023-09-18T11:33:33;3.53;;;1.95;;
53207;SDS011;39093;52.788;6.940;2023-09-18T11:38:56;3.10;;;2.30;;
53207;SDS011;39093;52.788;6.940;2023-09-18T11:41:29;6.80;;;2.90;;
53207;SDS011;39093;52.788;6.940;2023-09-18T11:46:41;6.65;;;1.65;;
53207;SDS011;39093;52.788;6.940;2023-09-18T11:49:12;2.83;;;1.80;;
53207;SDS011;39093;52.788;6.940;2023-09-18T11:51:40;3.15;;;1.75;;
53207;SDS011;39093;52.788;6.940;2023-09-18T11:54:07;3.92;;;1.90;;
53207;SDS011;39093;52.788;6.940;2023-09-18T11:56:36;2.50;;;1.80;;
53207;SDS011;39093;52.788;6.940;2023-09-18T11:59:05;2.97;;;1.55;;
53207;SDS011;39093;52.788;6.940;2023-09-18T12:01:33;4.38;;;1.77;;
53207;SDS011;39093;52.788;6.940;2023-09-18T12:04:03;4.97;;;1.73;;
53207;SDS011;39093;52.788;6.940;2023-09-18T12:06:38;6.07;;;2.47;;
53207;SDS011;39093;52.788;6.940;2023-09-18T12:09:07;5.93;;;2.08;;
53207;SDS011;39093;52.788;6.940;2023-09-18T12:11:40;4.00;;;1.42;;
53207;SDS011;39093;52.788;6.940;2023-09-18T12:14:08;4.38;;;1.58;;
53207;SDS011;39093;52.788;6.940;2023-09-18T12:16:39;6.80;;;1.58;;
53207;SDS011;39093;52.788;6.940;2023-09-18T12:19:06;2.45;;;1.35;;
53207;SDS011;39093;52.788;6.940;2023-09-18T12:21:40;6.75;;;1.98;;
53207;SDS011;39093;52.788;6.940;2023-09-18T12:24:12;5.07;;;1.48;;
53207;SDS011;39093;52.788;6.940;2023-09-18T12:26:53;3.35;;;1.38;;
53207;SDS011;39093;52.788;6.940;2023-09-18T12:29:21;4.03;;;1.40;;
53207;SDS011;39093;52.788;6.940;2023-09-18T12:31:48;5.47;;;1.60;;
53207;SDS011;39093;52.788;6.940;2023-09-18T12:34:20;2.85;;;1.30;;
53207;SDS011;39093;52.788;6.940;2023-09-18T12:36:48;3.97;;;1.90;;
53207;SDS011;39093;52.788;6.940;2023-09-18T12:39:17;6.10;;;2.17;;
53207;SDS011;39093;52.788;6.940;2023-09-18T12:41:47;8.18;;;1.20;;
53207;SDS011;39093;52.788;6.940;2023-09-18T12:44:15;3.35;;;1.77;;
53207;SDS011;39093;52.788;6.940;2023-09-18T12:46:43;2.80;;;1.40;;
53207;SDS011;39093;52.788;6.940;2023-09-18T12:49:20;4.30;;;1.73;;
53207;SDS011;39093;52.788;6.940;2023-09-18T12:52:01;4.95;;;2.13;;
53207;SDS011;39093;52.788;6.940;2023-09-18T12:54:36;4.57;;;1.50;;
53207;SDS011;39093;52.788;6.940;2023-09-18T12:57:10;4.15;;;2.03;;
53207;SDS011;39093;52.788;6.940;2023-09-18T12:59:37;5.60;;;1.88;;
53207;SDS011;39093;52.788;6.940;2023-09-18T13:02:05;4.88;;;2.15;;
53207;SDS011;39093;52.788;6.940;2023-09-18T13:04:34;10.02;;;2.13;;
53207;SDS011;39093;52.788;6.940;2023-09-18T13:07:11;4.68;;;1.63;;
53207;SDS011;39093;52.788;6.940;2023-09-18T13:09:39;10.95;;;2.13;;
53207;SDS011;39093;52.788;6.940;2023-09-18T13:12:07;6.18;;;1.90;;
53207;SDS011;39093;52.788;6.940;2023-09-18T13:17:38;4.15;;;1.95;;
53207;SDS011;39093;52.788;6.940;2023-09-18T13:20:15;8.77;;;2.17;;
53207;SDS011;39093;52.788;6.940;2023-09-18T13:22:51;5.50;;;2.05;;
53207;SDS011;39093;52.788;6.940;2023-09-18T13:25:23;7.07;;;2.30;;
53207;SDS011;39093;52.788;6.940;2023-09-18T13:27:52;4.50;;;2.42;;
53207;SDS011;39093;52.788;6.940;2023-09-18T13:30:21;5.32;;;2.22;;
53207;SDS011;39093;52.788;6.940;2023-09-18T13:32:49;5.75;;;2.58;;
53207;SDS011;39093;52.788;6.940;2023-09-18T13:35:16;4.72;;;2.38;;
53207;SDS011;39093;52.788;6.940;2023-09-18T13:37:44;5.65;;;2.53;;
53207;SDS011;39093;52.788;6.940;2023-09-18T13:40:12;6.40;;;2.38;;
53207;SDS011;39093;52.788;6.940;2023-09-18T13:42:39;5.80;;;2.05;;
53207;SDS011;39093;52.788;6.940;2023-09-18T13:45:06;4.50;;;1.85;;
53207;SDS011;39093;52.788;6.940;2023-09-18T13:47:34;7.85;;;2.60;;
53207;SDS011;39093;52.788;6.940;2023-09-18T13:50:05;5.30;;;2.35;;
53207;SDS011;39093;52.788;6.940;2023-09-18T13:52:33;4.82;;;2.40;;
53207;SDS011;39093;52.788;6.940;2023-09-18T13:55:01;7.00;;;2.47;;
53207;SDS011;39093;52.788;6.940;2023-09-18T13:57:32;7.70;;;2.53;;
53207;SDS011;39093;52.788;6.940;2023-09-18T13:59:59;3.55;;;1.90;;
53207;SDS011;39093;52.788;6.940;2023-09-18T14:02:36;4.63;;;1.90;;
53207;SDS011;39093;52.788;6.940;2023-09-18T14:05:03;5.82;;;2.42;;
53207;SDS011;39093;52.788;6.940;2023-09-18T14:07:31;4.70;;;2.05;;
53207;SDS011;39093;52.788;6.940;2023-09-18T14:09:58;6.10;;;2.20;;
53207;SDS011;39093;52.788;6.940;2023-09-18T14:12:25;4.57;;;1.90;;
53207;SDS011;39093;52.788;6.940;2023-09-18T14:14:52;6.07;;;2.50;;
53207;SDS011;39093;52.788;6.940;2023-09-18T14:17:19;6.57;;;2.40;;
53207;SDS011;39093;52.788;6.940;2023-09-18T14:19:49;5.60;;;1.85;;
53207;SDS011;39093;52.788;6.940;2023-09-18T14:22:18;3.88;;;1.90;;
53207;SDS011;39093;52.788;6.940;2023-09-18T14:24:45;5.97;;;2.03;;
53207;SDS011;39093;52.788;6.940;2023-09-18T14:27:12;5.35;;;2.00;;
53207;SDS011;39093;52.788;6.940;2023-09-18T14:29:39;7.82;;;2.08;;
53207;SDS011;39093;52.788;6.940;2023-09-18T14:32:06;9.07;;;2.20;;
53207;SDS011;39093;52.788;6.940;2023-09-18T14:34:35;4.15;;;2.20;;
53207;SDS011;39093;52.788;6.940;2023-09-18T14:37:02;6.80;;;3.35;;
53207;SDS011;39093;52.788;6.940;2023-09-18T14:39:32;5.32;;;2.08;;
53207;SDS011;39093;52.788;6.940;2023-09-18T14:41:59;4.47;;;1.98;;
53207;SDS011;39093;52.788;6.940;2023-09-18T14:44:27;14.35;;;2.30;;
53207;SDS011;39093;52.788;6.940;2023-09-18T14:46:54;8.10;;;2.42;;
53207;SDS011;39093;52.788;6.940;2023-09-18T14:49:21;8.43;;;2.63;;
53207;SDS011;39093;52.788;6.940;2023-09-18T14:51:48;4.57;;;1.83;;
53207;SDS011;39093;52.788;6.940;2023-09-18T14:54:20;6.03;;;2.30;;
53207;SDS011;39093;52.788;6.940;2023-09-18T14:56:47;4.88;;;2.35;;
53207;SDS011;39093;52.788;6.940;2023-09-18T14:59:14;4.40;;;2.10;;
53207;SDS011;39093;52.788;6.940;2023-09-18T15:01:57;4.20;;;2.30;;
53207;SDS011;39093;52.788;6.940;2023-09-18T15:04:24;7.35;;;2.70;;
53207;SDS011;39093;52.788;6.940;2023-09-18T15:06:51;7.32;;;2.63;;
53207;SDS011;39093;52.788;6.940;2023-09-18T15:09:18;8.88;;;2.55;;